Terminal Aerodrome Forecast
Issued by NWS Grand Forks, ND

Home | Current Version | Previous Version | Graphics & Text | Print | Product List | Glossary On
Versions: 1 2 3 4 5 6 7 8 9 10 11 12 13 14 15 16 17 18 19 20
297
FTUS43 KFGF 030523
TAFGFK
TAF
KGFK 030523Z 0306/0406 20007KT P6SM OVC025
      TEMPO 0309/0312 BKN040
     FM031200 17007KT P6SM OVC040
     FM032300 16012KT P6SM BKN020=

USA.gov is the U.S. government's official web portal to all federal, state and local government web resources and services.